Todd G — WRC6671 — position and weather

sailwx.info

Track history (hours):
 
Tides and Currents Weather Stations Pressure Air Temp Water Temp Dewpoint Dewpoint Depression Visibility Wind Speed Wind Dir Waves Ship Positions

Todd G

Owner: Harbor Towing & Fleeting, Inc., Metairie, LA. More information available from US FCC via Universal Licensing System and Coast Guard Vessel Documentation Center.

Last reported at 2015-Aug-29 20:19 UTC. Time now 2015-Aug-30 13:59 UTC.
Position N 29°56' W 090°00'.

Length 16 m.

Type: Towing. MMSI: 366988470.

Date/timePositionNaut miles runAvg speedWind from/ knotsBaromVisibWave heightAir tempDewpointWater temp
2015-Aug-29 20:19N 29°56' W 090°00'0 0.0
2015-Aug-29 18:06N 29°56' W 090°00'0 0.0
2015-Aug-29 15:32N 29°56' W 090°00'0 0.0
2015-Aug-29 14:32N 29°56' W 090°00'0 0.0
2015-Aug-29 13:15N 29°56' W 090°00'1 0.2
2015-Aug-29 06:26N 29°57' W 090°02'6 5.2
2015-Aug-29 05:15N 29°55' W 090°08'2 1.1
2015-Aug-29 03:05N 29°57' W 090°09'3 5.6
2015-Aug-29 02:33N 29°55' W 090°07'5 5.0
2015-Aug-29 01:26N 29°58' W 090°02'2 2.6
2015-Aug-29 00:31N 29°60' W 090°00'1 1.3
2015-Aug-28 23:29N 29°59' W 090°01'1 1.4
2015-Aug-28 22:31N 29°58' W 090°02'3 0.1
2015-Aug-27 15:25N 29°56' W 089°59'1 1.4
2015-Aug-27 14:31N 29°56' W 090°00'0 0.1
2015-Aug-27 13:33N 29°56' W 090°00'2 1.5
2015-Aug-27 12:32N 29°56' W 089°58'2 0.1
2015-Aug-26 11:03N 29°56' W 090°00'0 0.0
2015-Aug-26 08:30N 29°56' W 090°00'0 0.0
2015-Aug-26 07:23N 29°56' W 090°00'0 0.0
2015-Aug-26 06:31N 29°56' W 090°00'0 0.0
2015-Aug-26 05:31N 29°56' W 090°00'0 0.0
2015-Aug-26 04:26N 29°56' W 090°00'0 0.0
2015-Aug-26 01:09N 29°56' W 090°00'2 3.3
2015-Aug-26 00:30N 29°57' W 090°02'4 3.9
2015-Aug-25 23:33N 29°55' W 090°05'3 3.1
2015-Aug-25 22:32N 29°52' W 090°04'3 3.2
2015-Aug-25 21:33N 29°55' W 090°05'0 0.3
2015-Aug-25 20:33N 29°55' W 090°05'0 0.0
2015-Aug-25 19:30N 29°55' W 090°05'2 1.7
2015-Aug-25 18:31N 29°56' W 090°04'3 0.1
2015-Aug-24 12:27N 29°56' W 089°60'1 0.3
2015-Aug-24 08:24N 29°56' W 089°58'0 0.0
2015-Aug-24 06:20N 29°56' W 089°58'0 0.0
2015-Aug-24 05:21N 29°56' W 089°58'0 0.0
2015-Aug-24 04:17N 29°56' W 089°58'0 0.0
2015-Aug-24 03:32N 29°56' W 089°58'0 0.0
2015-Aug-24 02:28N 29°56' W 089°58'0 0.0
2015-Aug-24 01:27N 29°56' W 089°58'6 0.2
2015-Aug-22 23:31N 29°55' W 090°05'0 0.2
2015-Aug-22 22:06N 29°55' W 090°05'1 1.7
2015-Aug-22 21:22N 29°53' W 090°05'2 2.3
2015-Aug-22 20:31N 29°51' W 090°04'0 0.3
2015-Aug-22 19:33N 29°51' W 090°04'3 0.7
2015-Aug-22 15:31N 29°54' W 090°05'1 1.1
2015-Aug-22 14:32N 29°55' W 090°05'3 3.2
2015-Aug-22 13:32N 29°57' W 090°03'3 3.3
2015-Aug-22 12:33N 29°60' W 090°00'2 2.2
2015-Aug-22 11:34N 29°58' W 090°02'1 0.7
2015-Aug-22 10:33N 29°57' W 090°02'1 0.7
2015-Aug-22 09:33N 29°57' W 090°01'1 1.3
2015-Aug-22 08:32N 29°58' W 090°02'1 0.9
2015-Aug-22 07:32N 29°58' W 090°02'1 1.3
2015-Aug-22 06:32N 29°59' W 090°01'1 0.1
2015-Aug-21 07:33N 29°58' W 090°02'1 0.9
2015-Aug-21 06:34N 29°59' W 090°01'0 0.1
2015-Aug-21 05:32N 29°59' W 090°01'1 1.5
2015-Aug-21 04:33N 29°60' W 090°00'1 1.3
2015-Aug-21 03:33N 29°59' W 090°01'2 1.5
2015-Aug-21 02:33N 29°57' W 090°02'2 1.7
2015-Aug-21 01:33N 29°56' W 090°00'1 0.6
2015-Aug-21 00:33N 29°57' W 090°00'2 1.9
2015-Aug-20 23:33N 29°58' W 090°01'1 1.4
2015-Aug-20 22:32N 29°60' W 090°01'0 0.0
2015-Aug-20 21:30N 29°60' W 090°01'0 0.3
2015-Aug-20 20:32N 29°60' W 090°00'3 0.2
2015-Aug-20 01:24N 29°56' W 090°00'2 2.3
2015-Aug-20 00:33N 29°58' W 090°02'1 1.2
2015-Aug-19 23:27N 29°59' W 090°01'0 0.3
2015-Aug-19 22:27N 29°59' W 090°01'0 0.0
2015-Aug-19 21:31N 29°59' W 090°01'0 0.3
2015-Aug-19 20:33N 29°59' W 090°01'  
Track history (hours):
 
Tides and Currents Weather Stations Pressure Air Temp Water Temp Dewpoint Dewpoint Depression Visibility Wind Speed Wind Dir Waves Ship Positions

Todd G

Owner: Harbor Towing & Fleeting, Inc., Metairie, LA. More information available from US FCC via Universal Licensing System and Coast Guard Vessel Documentation Center.

Last reported at 2015-Aug-29 20:19 UTC. Time now 2015-Aug-30 13:59 UTC.
Position N 29°56' W 090°00'.

Length 16 m.

Type: Towing. MMSI: 366988470.

Date/timePositionNaut miles runAvg speedWind from/ knotsBaromVisibWave heightAir tempDewpointWater temp
2015-Aug-29 20:19N 29°56' W 090°00'0 0.0
2015-Aug-29 18:06N 29°56' W 090°00'0 0.0
2015-Aug-29 15:32N 29°56' W 090°00'0 0.0
2015-Aug-29 14:32N 29°56' W 090°00'0 0.0
2015-Aug-29 13:15N 29°56' W 090°00'1 0.2
2015-Aug-29 06:26N 29°57' W 090°02'6 5.2
2015-Aug-29 05:15N 29°55' W 090°08'2 1.1
2015-Aug-29 03:05N 29°57' W 090°09'3 5.6
2015-Aug-29 02:33N 29°55' W 090°07'5 5.0
2015-Aug-29 01:26N 29°58' W 090°02'2 2.6
2015-Aug-29 00:31N 29°60' W 090°00'1 1.3
2015-Aug-28 23:29N 29°59' W 090°01'1 1.4
2015-Aug-28 22:31N 29°58' W 090°02'3 0.1
2015-Aug-27 15:25N 29°56' W 089°59'1 1.4
2015-Aug-27 14:31N 29°56' W 090°00'0 0.1
2015-Aug-27 13:33N 29°56' W 090°00'2 1.5
2015-Aug-27 12:32N 29°56' W 089°58'2 0.1
2015-Aug-26 11:03N 29°56' W 090°00'0 0.0
2015-Aug-26 08:30N 29°56' W 090°00'0 0.0
2015-Aug-26 07:23N 29°56' W 090°00'0 0.0
2015-Aug-26 06:31N 29°56' W 090°00'0 0.0
2015-Aug-26 05:31N 29°56' W 090°00'0 0.0
2015-Aug-26 04:26N 29°56' W 090°00'0 0.0
2015-Aug-26 01:09N 29°56' W 090°00'2 3.3
2015-Aug-26 00:30N 29°57' W 090°02'4 3.9
2015-Aug-25 23:33N 29°55' W 090°05'3 3.1
2015-Aug-25 22:32N 29°52' W 090°04'3 3.2
2015-Aug-25 21:33N 29°55' W 090°05'0 0.3
2015-Aug-25 20:33N 29°55' W 090°05'0 0.0
2015-Aug-25 19:30N 29°55' W 090°05'2 1.7
2015-Aug-25 18:31N 29°56' W 090°04'3 0.1
2015-Aug-24 12:27N 29°56' W 089°60'1 0.3
2015-Aug-24 08:24N 29°56' W 089°58'0 0.0
2015-Aug-24 06:20N 29°56' W 089°58'0 0.0
2015-Aug-24 05:21N 29°56' W 089°58'0 0.0
2015-Aug-24 04:17N 29°56' W 089°58'0 0.0
2015-Aug-24 03:32N 29°56' W 089°58'0 0.0
2015-Aug-24 02:28N 29°56' W 089°58'0 0.0
2015-Aug-24 01:27N 29°56' W 089°58'6 0.2
2015-Aug-22 23:31N 29°55' W 090°05'0 0.2
2015-Aug-22 22:06N 29°55' W 090°05'1 1.7
2015-Aug-22 21:22N 29°53' W 090°05'2 2.3
2015-Aug-22 20:31N 29°51' W 090°04'0 0.3
2015-Aug-22 19:33N 29°51' W 090°04'3 0.7
2015-Aug-22 15:31N 29°54' W 090°05'1 1.1
2015-Aug-22 14:32N 29°55' W 090°05'3 3.2
2015-Aug-22 13:32N 29°57' W 090°03'3 3.3
2015-Aug-22 12:33N 29°60' W 090°00'2 2.2
2015-Aug-22 11:34N 29°58' W 090°02'1 0.7
2015-Aug-22 10:33N 29°57' W 090°02'1 0.7
2015-Aug-22 09:33N 29°57' W 090°01'1 1.3
2015-Aug-22 08:32N 29°58' W 090°02'1 0.9
2015-Aug-22 07:32N 29°58' W 090°02'1 1.3
2015-Aug-22 06:32N 29°59' W 090°01'1 0.1
2015-Aug-21 07:33N 29°58' W 090°02'1 0.9
2015-Aug-21 06:34N 29°59' W 090°01'0 0.1
2015-Aug-21 05:32N 29°59' W 090°01'1 1.5
2015-Aug-21 04:33N 29°60' W 090°00'1 1.3
2015-Aug-21 03:33N 29°59' W 090°01'2 1.5
2015-Aug-21 02:33N 29°57' W 090°02'2 1.7
2015-Aug-21 01:33N 29°56' W 090°00'1 0.6
2015-Aug-21 00:33N 29°57' W 090°00'2 1.9
2015-Aug-20 23:33N 29°58' W 090°01'1 1.4
2015-Aug-20 22:32N 29°60' W 090°01'0 0.0
2015-Aug-20 21:30N 29°60' W 090°01'0 0.3
2015-Aug-20 20:32N 29°60' W 090°00'3 0.2
2015-Aug-20 01:24N 29°56' W 090°00'2 2.3
2015-Aug-20 00:33N 29°58' W 090°02'1 1.2
2015-Aug-19 23:27N 29°59' W 090°01'0 0.3
2015-Aug-19 22:27N 29°59' W 090°01'0 0.0
2015-Aug-19 21:31N 29°59' W 090°01'0 0.3
2015-Aug-19 20:33N 29°59' W 090°01'  

Dump ship's entire track history